Alpharetta, Georgia
Current Conditions -  °F | °C
As of 1:53 AM on Wednesday 22 Oct 2014 (Local Time) from KPDK Reporting Station
Clear Clear  
Wind Chill: 53°   Ceiling: Unl
Heat Index: 53°   Visibility: 10mi
Dew Point: 44°   Wind: 7mph
Humidity: 71%   Direction: 340°NNW
Pressure: 30.02"   Gusts: NA
Location:  34.08°N, 84.29°W
Report Text: KPDK 220553Z AUTO 34006KT 10SM CLR 12/07 A3002 RMK AO2 SLP160 T01170067 10172 20106 58001
Loading
Personal Weather Stations






























Interactive Weather Map
Tropical Storm Tracking
New forecast layout! Learn more

10-Day Weather Forecast

Advertisements
Track Severe Weather on mobile